sensor_id;sensor_type;location;lat;lon;timestamp;P1;durP1;ratioP1;P2;durP2;ratioP2
73697;SDS011;62004;42.566;23.164;2023-03-21T00:01:18;85.17;;;28.50;;
73697;SDS011;62004;42.566;23.164;2023-03-21T00:03:44;85.35;;;29.23;;
73697;SDS011;62004;42.566;23.164;2023-03-21T00:06:11;84.65;;;28.17;;
73697;SDS011;62004;42.566;23.164;2023-03-21T00:08:37;84.97;;;28.48;;
73697;SDS011;62004;42.566;23.164;2023-03-21T00:11:03;85.72;;;29.27;;
73697;SDS011;62004;42.566;23.164;2023-03-21T00:13:29;84.65;;;27.98;;
73697;SDS011;62004;42.566;23.164;2023-03-21T00:16:04;85.22;;;28.75;;
73697;SDS011;62004;42.566;23.164;2023-03-21T00:18:30;85.35;;;29.08;;
73697;SDS011;62004;42.566;23.164;2023-03-21T00:20:59;85.55;;;29.58;;
73697;SDS011;62004;42.566;23.164;2023-03-21T00:23:25;84.53;;;27.33;;
73697;SDS011;62004;42.566;23.164;2023-03-21T00:25:50;84.57;;;28.05;;
73697;SDS011;62004;42.566;23.164;2023-03-21T00:28:15;84.37;;;27.73;;
73697;SDS011;62004;42.566;23.164;2023-03-21T00:30:40;84.63;;;28.57;;
73697;SDS011;62004;42.566;23.164;2023-03-21T00:33:06;85.10;;;29.20;;
73697;SDS011;62004;42.566;23.164;2023-03-21T00:35:31;84.87;;;28.93;;
73697;SDS011;62004;42.566;23.164;2023-03-21T00:37:56;84.87;;;29.17;;
73697;SDS011;62004;42.566;23.164;2023-03-21T00:40:21;84.80;;;28.97;;
73697;SDS011;62004;42.566;23.164;2023-03-21T00:42:47;84.00;;;27.70;;
73697;SDS011;62004;42.566;23.164;2023-03-21T00:45:12;84.00;;;28.50;;
73697;SDS011;62004;42.566;23.164;2023-03-21T00:47:37;84.53;;;28.53;;
73697;SDS011;62004;42.566;23.164;2023-03-21T00:50:03;84.60;;;28.77;;
73697;SDS011;62004;42.566;23.164;2023-03-21T00:52:30;84.05;;;27.58;;
73697;SDS011;62004;42.566;23.164;2023-03-21T00:54:55;84.00;;;27.65;;
73697;SDS011;62004;42.566;23.164;2023-03-21T00:57:20;84.33;;;27.83;;
73697;SDS011;62004;42.566;23.164;2023-03-21T00:59:46;84.20;;;28.07;;
73697;SDS011;62004;42.566;23.164;2023-03-21T01:05:09;84.20;;;27.65;;
73697;SDS011;62004;42.566;23.164;2023-03-21T01:07:35;84.05;;;27.50;;
73697;SDS011;62004;42.566;23.164;2023-03-21T01:10:00;84.77;;;29.20;;
73697;SDS011;62004;42.566;23.164;2023-03-21T01:12:25;84.20;;;28.07;;
73697;SDS011;62004;42.566;23.164;2023-03-21T01:14:51;84.32;;;28.35;;
73697;SDS011;62004;42.566;23.164;2023-03-21T01:17:16;83.90;;;28.33;;
73697;SDS011;62004;42.566;23.164;2023-03-21T01:19:42;84.13;;;28.27;;
73697;SDS011;62004;42.566;23.164;2023-03-21T01:22:07;84.00;;;27.77;;
73697;SDS011;62004;42.566;23.164;2023-03-21T01:24:32;84.13;;;28.43;;
73697;SDS011;62004;42.566;23.164;2023-03-21T01:26:58;84.23;;;28.17;;
73697;SDS011;62004;42.566;23.164;2023-03-21T01:29:23;84.00;;;28.30;;
73697;SDS011;62004;42.566;23.164;2023-03-21T01:31:48;84.20;;;28.63;;
73697;SDS011;62004;42.566;23.164;2023-03-21T01:34:13;84.27;;;28.63;;
73697;SDS011;62004;42.566;23.164;2023-03-21T01:36:39;85.00;;;29.90;;
73697;SDS011;62004;42.566;23.164;2023-03-21T01:39:05;84.60;;;28.95;;
73697;SDS011;62004;42.566;23.164;2023-03-21T01:41:40;83.60;;;27.30;;
73697;SDS011;62004;42.566;23.164;2023-03-21T01:44:05;84.10;;;28.02;;
73697;SDS011;62004;42.566;23.164;2023-03-21T01:48:58;83.90;;;28.30;;
73697;SDS011;62004;42.566;23.164;2023-03-21T01:51:25;83.88;;;27.90;;
73697;SDS011;62004;42.566;23.164;2023-03-21T01:53:51;83.65;;;27.65;;
73697;SDS011;62004;42.566;23.164;2023-03-21T01:56:18;83.63;;;27.55;;
73697;SDS011;62004;42.566;23.164;2023-03-21T01:58:45;84.10;;;28.80;;
73697;SDS011;62004;42.566;23.164;2023-03-21T02:01:10;83.05;;;26.90;;
73697;SDS011;62004;42.566;23.164;2023-03-21T02:03:37;83.30;;;27.27;;
73697;SDS011;62004;42.566;23.164;2023-03-21T02:06:14;83.63;;;27.67;;
73697;SDS011;62004;42.566;23.164;2023-03-21T02:08:40;83.45;;;27.30;;
73697;SDS011;62004;42.566;23.164;2023-03-21T02:11:07;83.93;;;28.63;;
73697;SDS011;62004;42.566;23.164;2023-03-21T02:13:33;83.10;;;27.05;;
73697;SDS011;62004;42.566;23.164;2023-03-21T02:17:02;83.13;;;27.00;;
73697;SDS011;62004;42.566;23.164;2023-03-21T02:18:57;83.90;;;28.40;;
73697;SDS011;62004;42.566;23.164;2023-03-21T02:36:45;83.63;;;28.30;;
73697;SDS011;62004;42.566;23.164;2023-03-21T02:41:51;83.05;;;27.25;;
73697;SDS011;62004;42.566;23.164;2023-03-21T02:47:04;83.25;;;27.77;;
73697;SDS011;62004;42.566;23.164;2023-03-21T02:49:36;82.93;;;27.52;;
73697;SDS011;62004;42.566;23.164;2023-03-21T02:52:07;82.90;;;27.20;;
73697;SDS011;62004;42.566;23.164;2023-03-21T02:54:33;83.28;;;27.52;;
73697;SDS011;62004;42.566;23.164;2023-03-21T02:56:59;83.90;;;28.73;;
73697;SDS011;62004;42.566;23.164;2023-03-21T02:59:27;83.00;;;27.00;;
73697;SDS011;62004;42.566;23.164;2023-03-21T03:01:53;83.57;;;28.13;;
73697;SDS011;62004;42.566;23.164;2023-03-21T03:04:20;82.75;;;26.92;;
73697;SDS011;62004;42.566;23.164;2023-03-21T03:09:38;83.05;;;27.45;;
73697;SDS011;62004;42.566;23.164;2023-03-21T03:14:58;82.78;;;27.10;;
73697;SDS011;62004;42.566;23.164;2023-03-21T03:20:17;82.45;;;26.77;;
73697;SDS011;62004;42.566;23.164;2023-03-21T03:22:47;82.75;;;27.08;;
73697;SDS011;62004;42.566;23.164;2023-03-21T03:25:14;83.13;;;27.88;;
73697;SDS011;62004;42.566;23.164;2023-03-21T03:27:42;82.03;;;26.42;;
73697;SDS011;62004;42.566;23.164;2023-03-21T03:30:08;82.80;;;27.33;;
73697;SDS011;62004;42.566;23.164;2023-03-21T03:32:45;82.78;;;27.27;;
73697;SDS011;62004;42.566;23.164;2023-03-21T03:35:14;82.72;;;27.35;;
73697;SDS011;62004;42.566;23.164;2023-03-21T03:37:40;82.70;;;27.23;;
73697;SDS011;62004;42.566;23.164;2023-03-21T03:43:15;81.28;;;27.48;;
73697;SDS011;62004;42.566;23.164;2023-03-21T03:45:22;81.13;;;27.27;;
73697;SDS011;62004;42.566;23.164;2023-03-21T03:48:00;80.50;;;26.20;;
73697;SDS011;62004;42.566;23.164;2023-03-21T03:50:27;81.60;;;26.50;;
73697;SDS011;62004;42.566;23.164;2023-03-21T03:52:55;81.35;;;26.63;;
73697;SDS011;62004;42.566;23.164;2023-03-21T03:55:23;81.55;;;26.50;;
73697;SDS011;62004;42.566;23.164;2023-03-21T03:57:51;81.68;;;26.58;;
73697;SDS011;62004;42.566;23.164;2023-03-21T04:00:16;81.57;;;26.98;;
73697;SDS011;62004;42.566;23.164;2023-03-21T04:02:42;81.50;;;26.85;;
73697;SDS011;62004;42.566;23.164;2023-03-21T04:05:07;81.90;;;28.00;;
73697;SDS011;62004;42.566;23.164;2023-03-21T04:07:32;81.90;;;27.35;;
73697;SDS011;62004;42.566;23.164;2023-03-21T04:09:58;81.33;;;26.43;;
73697;SDS011;62004;42.566;23.164;2023-03-21T04:12:23;81.20;;;26.38;;
73697;SDS011;62004;42.566;23.164;2023-03-21T04:14:49;81.50;;;26.87;;
73697;SDS011;62004;42.566;23.164;2023-03-21T04:17:14;81.65;;;27.10;;
73697;SDS011;62004;42.566;23.164;2023-03-21T04:19:39;81.32;;;26.25;;
73697;SDS011;62004;42.566;23.164;2023-03-21T04:22:05;80.87;;;26.17;;
73697;SDS011;62004;42.566;23.164;2023-03-21T04:24:30;81.33;;;26.23;;
73697;SDS011;62004;42.566;23.164;2023-03-21T04:26:58;81.00;;;26.08;;
73697;SDS011;62004;42.566;23.164;2023-03-21T04:29:23;81.55;;;27.58;;
73697;SDS011;62004;42.566;23.164;2023-03-21T04:31:48;81.43;;;27.47;;
73697;SDS011;62004;42.566;23.164;2023-03-21T04:34:13;81.25;;;26.40;;
73697;SDS011;62004;42.566;23.164;2023-03-21T04:36:39;81.10;;;26.13;;
73697;SDS011;62004;42.566;23.164;2023-03-21T04:39:10;81.03;;;25.98;;
73697;SDS011;62004;42.566;23.164;2023-03-21T04:41:43;81.32;;;26.48;;
73697;SDS011;62004;42.566;23.164;2023-03-21T04:44:09;80.80;;;25.98;;
73697;SDS011;62004;42.566;23.164;2023-03-21T04:46:36;81.22;;;26.48;;
73697;SDS011;62004;42.566;23.164;2023-03-21T04:49:01;81.80;;;26.85;;
73697;SDS011;62004;42.566;23.164;2023-03-21T04:51:27;81.20;;;26.30;;
73697;SDS011;62004;42.566;23.164;2023-03-21T04:53:52;81.43;;;26.58;;
73697;SDS011;62004;42.566;23.164;2023-03-21T04:56:22;81.80;;;26.55;;
73697;SDS011;62004;42.566;23.164;2023-03-21T04:58:50;81.35;;;26.50;;
73697;SDS011;62004;42.566;23.164;2023-03-21T05:01:15;81.80;;;27.57;;
73697;SDS011;62004;42.566;23.164;2023-03-21T05:03:44;81.63;;;26.55;;
73697;SDS011;62004;42.566;23.164;2023-03-21T05:06:09;81.53;;;27.37;;
73697;SDS011;62004;42.566;23.164;2023-03-21T05:08:35;81.40;;;26.77;;
73697;SDS011;62004;42.566;23.164;2023-03-21T05:11:01;81.90;;;27.27;;
73697;SDS011;62004;42.566;23.164;2023-03-21T05:13:26;81.28;;;26.65;;
73697;SDS011;62004;42.566;23.164;2023-03-21T05:15:51;81.73;;;27.20;;
73697;SDS011;62004;42.566;23.164;2023-03-21T05:18:16;81.53;;;27.03;;
73697;SDS011;62004;42.566;23.164;2023-03-21T05:20:48;81.03;;;26.15;;
73697;SDS011;62004;42.566;23.164;2023-03-21T05:23:17;81.28;;;26.75;;
73697;SDS011;62004;42.566;23.164;2023-03-21T05:25:42;81.17;;;26.57;;
73697;SDS011;62004;42.566;23.164;2023-03-21T05:28:08;80.67;;;26.50;;
73697;SDS011;62004;42.566;23.164;2023-03-21T05:30:33;82.50;;;27.20;;
73697;SDS011;62004;42.566;23.164;2023-03-21T05:32:58;82.63;;;27.47;;
73697;SDS011;62004;42.566;23.164;2023-03-21T05:35:24;82.50;;;27.00;;
73697;SDS011;62004;42.566;23.164;2023-03-21T05:37:50;82.65;;;27.02;;
73697;SDS011;62004;42.566;23.164;2023-03-21T05:40:15;83.05;;;27.90;;
73697;SDS011;62004;42.566;23.164;2023-03-21T05:42:40;82.67;;;27.10;;
73697;SDS011;62004;42.566;23.164;2023-03-21T05:45:06;83.60;;;28.53;;
73697;SDS011;62004;42.566;23.164;2023-03-21T05:47:31;83.63;;;28.33;;
73697;SDS011;62004;42.566;23.164;2023-03-21T05:49:57;82.88;;;26.98;;
73697;SDS011;62004;42.566;23.164;2023-03-21T05:52:22;82.63;;;26.80;;
73697;SDS011;62004;42.566;23.164;2023-03-21T05:54:48;82.88;;;27.20;;
73697;SDS011;62004;42.566;23.164;2023-03-21T05:57:13;82.47;;;26.63;;
73697;SDS011;62004;42.566;23.164;2023-03-21T05:59:38;82.75;;;26.70;;
73697;SDS011;62004;42.566;23.164;2023-03-21T06:02:04;83.23;;;27.97;;
73697;SDS011;62004;42.566;23.164;2023-03-21T06:04:29;83.18;;;27.33;;
73697;SDS011;62004;42.566;23.164;2023-03-21T06:06:55;83.18;;;27.33;;
73697;SDS011;62004;42.566;23.164;2023-03-21T06:09:20;84.25;;;29.55;;
73697;SDS011;62004;42.566;23.164;2023-03-21T06:11:47;83.32;;;27.90;;
73697;SDS011;62004;42.566;23.164;2023-03-21T06:14:13;83.45;;;27.58;;
73697;SDS011;62004;42.566;23.164;2023-03-21T06:16:38;83.60;;;28.13;;
73697;SDS011;62004;42.566;23.164;2023-03-21T06:19:04;83.80;;;28.10;;
73697;SDS011;62004;42.566;23.164;2023-03-21T06:21:29;83.22;;;27.35;;
73697;SDS011;62004;42.566;23.164;2023-03-21T06:23:54;83.13;;;27.33;;
73697;SDS011;62004;42.566;23.164;2023-03-21T06:26:20;83.87;;;29.10;;
73697;SDS011;62004;42.566;23.164;2023-03-21T06:28:50;83.78;;;28.88;;
73697;SDS011;62004;42.566;23.164;2023-03-21T06:31:15;84.45;;;29.17;;
73697;SDS011;62004;42.566;23.164;2023-03-21T06:33:40;87.07;;;30.93;;
73697;SDS011;62004;42.566;23.164;2023-03-21T06:36:06;87.22;;;30.67;;
73697;SDS011;62004;42.566;23.164;2023-03-21T06:38:31;88.15;;;29.58;;
73697;SDS011;62004;42.566;23.164;2023-03-21T06:40:56;88.60;;;30.50;;
73697;SDS011;62004;42.566;23.164;2023-03-21T06:43:22;87.28;;;29.30;;
73697;SDS011;62004;42.566;23.164;2023-03-21T06:45:47;89.22;;;30.17;;
73697;SDS011;62004;42.566;23.164;2023-03-21T06:48:12;89.47;;;29.77;;
73697;SDS011;62004;42.566;23.164;2023-03-21T06:50:38;88.37;;;29.20;;
73697;SDS011;62004;42.566;23.164;2023-03-21T06:53:03;88.50;;;28.70;;
73697;SDS011;62004;42.566;23.164;2023-03-21T06:55:28;89.30;;;29.90;;
73697;SDS011;62004;42.566;23.164;2023-03-21T06:57:54;88.45;;;29.25;;
73697;SDS011;62004;42.566;23.164;2023-03-21T07:00:20;88.47;;;29.85;;
73697;SDS011;62004;42.566;23.164;2023-03-21T07:02:45;87.63;;;28.30;;
73697;SDS011;62004;42.566;23.164;2023-03-21T07:05:11;87.72;;;28.67;;
73697;SDS011;62004;42.566;23.164;2023-03-21T07:07:36;87.93;;;28.70;;
73697;SDS011;62004;42.566;23.164;2023-03-21T07:10:02;87.70;;;28.73;;
73697;SDS011;62004;42.566;23.164;2023-03-21T07:12:27;87.80;;;28.83;;
73697;SDS011;62004;42.566;23.164;2023-03-21T07:14:52;88.73;;;29.83;;
73697;SDS011;62004;42.566;23.164;2023-03-21T07:17:18;89.27;;;30.70;;
73697;SDS011;62004;42.566;23.164;2023-03-21T07:19:43;90.63;;;30.40;;
73697;SDS011;62004;42.566;23.164;2023-03-21T07:22:08;89.40;;;28.83;;
73697;SDS011;62004;42.566;23.164;2023-03-21T07:24:33;90.13;;;28.57;;
73697;SDS011;62004;42.566;23.164;2023-03-21T07:26:58;88.93;;;28.57;;
73697;SDS011;62004;42.566;23.164;2023-03-21T07:29:24;88.38;;;29.42;;
73697;SDS011;62004;42.566;23.164;2023-03-21T07:31:49;87.65;;;29.55;;
73697;SDS011;62004;42.566;23.164;2023-03-21T07:34:15;86.40;;;28.47;;
73697;SDS011;62004;42.566;23.164;2023-03-21T07:36:41;85.97;;;28.58;;
73697;SDS011;62004;42.566;23.164;2023-03-21T07:39:06;86.43;;;29.80;;
73697;SDS011;62004;42.566;23.164;2023-03-21T07:41:32;86.27;;;29.60;;
73697;SDS011;62004;42.566;23.164;2023-03-21T07:43:57;86.30;;;29.27;;
73697;SDS011;62004;42.566;23.164;2023-03-21T07:46:22;86.00;;;29.03;;
73697;SDS011;62004;42.566;23.164;2023-03-21T07:48:48;85.90;;;28.73;;
73697;SDS011;62004;42.566;23.164;2023-03-21T07:51:13;86.07;;;29.17;;
73697;SDS011;62004;42.566;23.164;2023-03-21T07:53:38;85.87;;;28.47;;
73697;SDS011;62004;42.566;23.164;2023-03-21T07:56:06;86.05;;;28.73;;
73697;SDS011;62004;42.566;23.164;2023-03-21T07:58:31;86.30;;;28.77;;
73697;SDS011;62004;42.566;23.164;2023-03-21T08:00:58;86.32;;;28.52;;
73697;SDS011;62004;42.566;23.164;2023-03-21T08:03:23;86.93;;;30.05;;
73697;SDS011;62004;42.566;23.164;2023-03-21T08:05:50;86.05;;;28.80;;
73697;SDS011;62004;42.566;23.164;2023-03-21T08:08:16;86.53;;;28.67;;
73697;SDS011;62004;42.566;23.164;2023-03-21T08:10:41;86.10;;;28.73;;
73697;SDS011;62004;42.566;23.164;2023-03-21T08:13:07;86.25;;;28.90;;
73697;SDS011;62004;42.566;23.164;2023-03-21T08:15:32;86.20;;;29.10;;
73697;SDS011;62004;42.566;23.164;2023-03-21T08:17:58;86.50;;;29.03;;
73697;SDS011;62004;42.566;23.164;2023-03-21T08:20:23;87.18;;;29.98;;
73697;SDS011;62004;42.566;23.164;2023-03-21T08:22:49;86.17;;;28.20;;
73697;SDS011;62004;42.566;23.164;2023-03-21T08:25:15;87.00;;;29.45;;
73697;SDS011;62004;42.566;23.164;2023-03-21T08:27:42;86.35;;;28.35;;
73697;SDS011;62004;42.566;23.164;2023-03-21T08:30:12;87.13;;;29.70;;
73697;SDS011;62004;42.566;23.164;2023-03-21T08:32:38;87.13;;;29.33;;
73697;SDS011;62004;42.566;23.164;2023-03-21T08:35:04;86.88;;;29.35;;
73697;SDS011;62004;42.566;23.164;2023-03-21T08:37:29;86.90;;;29.33;;
73697;SDS011;62004;42.566;23.164;2023-03-21T08:39:55;86.47;;;29.23;;
73697;SDS011;62004;42.566;23.164;2023-03-21T08:42:20;86.20;;;28.80;;
73697;SDS011;62004;42.566;23.164;2023-03-21T08:44:46;86.78;;;29.50;;
73697;SDS011;62004;42.566;23.164;2023-03-21T08:47:11;86.78;;;29.52;;
73697;SDS011;62004;42.566;23.164;2023-03-21T08:49:37;86.97;;;29.97;;
73697;SDS011;62004;42.566;23.164;2023-03-21T08:52:02;86.73;;;29.70;;
73697;SDS011;62004;42.566;23.164;2023-03-21T08:54:27;86.80;;;29.52;;
73697;SDS011;62004;42.566;23.164;2023-03-21T08:56:53;86.33;;;28.50;;
73697;SDS011;62004;42.566;23.164;2023-03-21T08:59:18;86.53;;;28.87;;
73697;SDS011;62004;42.566;23.164;2023-03-21T09:01:43;86.53;;;29.10;;
73697;SDS011;62004;42.566;23.164;2023-03-21T09:04:09;86.78;;;29.52;;
73697;SDS011;62004;42.566;23.164;2023-03-21T09:06:38;86.75;;;29.45;;
73697;SDS011;62004;42.566;23.164;2023-03-21T09:09:05;85.80;;;27.90;;
73697;SDS011;62004;42.566;23.164;2023-03-21T09:11:32;86.97;;;29.65;;
73697;SDS011;62004;42.566;23.164;2023-03-21T09:13:57;87.10;;;29.20;;
73697;SDS011;62004;42.566;23.164;2023-03-21T09:16:22;86.93;;;28.60;;
73697;SDS011;62004;42.566;23.164;2023-03-21T09:18:49;87.28;;;29.33;;
73697;SDS011;62004;42.566;23.164;2023-03-21T09:21:19;87.05;;;29.45;;
73697;SDS011;62004;42.566;23.164;2023-03-21T09:23:45;87.85;;;29.55;;
73697;SDS011;62004;42.566;23.164;2023-03-21T09:26:11;87.85;;;30.17;;
73697;SDS011;62004;42.566;23.164;2023-03-21T09:28:37;87.68;;;29.00;;
73697;SDS011;62004;42.566;23.164;2023-03-21T09:31:03;87.60;;;28.83;;
73697;SDS011;62004;42.566;23.164;2023-03-21T09:33:29;87.63;;;28.95;;
73697;SDS011;62004;42.566;23.164;2023-03-21T09:35:55;87.65;;;28.30;;
73697;SDS011;62004;42.566;23.164;2023-03-21T09:38:21;88.50;;;29.80;;
73697;SDS011;62004;42.566;23.164;2023-03-21T09:40:55;88.53;;;29.58;;
73697;SDS011;62004;42.566;23.164;2023-03-21T09:43:38;88.50;;;29.35;;
73697;SDS011;62004;42.566;23.164;2023-03-21T09:46:09;89.25;;;29.88;;
73697;SDS011;62004;42.566;23.164;2023-03-21T09:51:14;88.97;;;28.88;;
73697;SDS011;62004;42.566;23.164;2023-03-21T09:53:41;90.03;;;29.00;;
73697;SDS011;62004;42.566;23.164;2023-03-21T09:56:08;90.40;;;28.95;;
73697;SDS011;62004;42.566;23.164;2023-03-21T09:58:38;90.78;;;29.02;;
73697;SDS011;62004;42.566;23.164;2023-03-21T10:01:08;91.30;;;28.85;;
73697;SDS011;62004;42.566;23.164;2023-03-21T10:03:34;91.05;;;28.63;;
73697;SDS011;62004;42.566;23.164;2023-03-21T10:06:02;91.53;;;29.65;;
73697;SDS011;62004;42.566;23.164;2023-03-21T10:08:32;91.18;;;28.70;;
73697;SDS011;62004;42.566;23.164;2023-03-21T10:11:10;92.65;;;29.50;;
73697;SDS011;62004;42.566;23.164;2023-03-21T10:13:42;93.15;;;29.70;;
73697;SDS011;62004;42.566;23.164;2023-03-21T10:16:12;92.75;;;28.92;;
73697;SDS011;62004;42.566;23.164;2023-03-21T10:18:38;93.97;;;29.05;;
73697;SDS011;62004;42.566;23.164;2023-03-21T10:21:06;94.40;;;29.05;;
73697;SDS011;62004;42.566;23.164;2023-03-21T10:23:31;94.30;;;29.20;;
73697;SDS011;62004;42.566;23.164;2023-03-21T10:25:57;93.70;;;28.37;;
73697;SDS011;62004;42.566;23.164;2023-03-21T10:28:25;94.10;;;28.95;;
73697;SDS011;62004;42.566;23.164;2023-03-21T10:33:17;94.17;;;29.37;;
73697;SDS011;62004;42.566;23.164;2023-03-21T10:35:45;94.78;;;29.08;;
73697;SDS011;62004;42.566;23.164;2023-03-21T10:38:17;94.72;;;29.10;;
73697;SDS011;62004;42.566;23.164;2023-03-21T10:40:43;94.63;;;28.67;;
73697;SDS011;62004;42.566;23.164;2023-03-21T10:45:46;94.65;;;29.02;;
73697;SDS011;62004;42.566;23.164;2023-03-21T10:48:12;95.22;;;29.38;;
73697;SDS011;62004;42.566;23.164;2023-03-21T10:50:37;95.05;;;28.98;;
73697;SDS011;62004;42.566;23.164;2023-03-21T10:53:05;94.97;;;28.65;;
73697;SDS011;62004;42.566;23.164;2023-03-21T10:55:39;95.68;;;28.90;;
73697;SDS011;62004;42.566;23.164;2023-03-21T10:58:05;95.38;;;28.92;;
73697;SDS011;62004;42.566;23.164;2023-03-21T11:00:41;95.28;;;28.63;;
73697;SDS011;62004;42.566;23.164;2023-03-21T11:03:16;95.32;;;28.75;;
73697;SDS011;62004;42.566;23.164;2023-03-21T11:05:45;95.22;;;28.38;;
73697;SDS011;62004;42.566;23.164;2023-03-21T11:08:11;96.93;;;29.25;;
73697;SDS011;62004;42.566;23.164;2023-03-21T11:10:47;96.88;;;28.95;;
73697;SDS011;62004;42.566;23.164;2023-03-21T11:13:18;96.72;;;28.63;;
73697;SDS011;62004;42.566;23.164;2023-03-21T11:15:57;97.18;;;29.33;;
73697;SDS011;62004;42.566;23.164;2023-03-21T11:18:29;97.18;;;29.27;;
73697;SDS011;62004;42.566;23.164;2023-03-21T11:21:05;96.85;;;28.80;;
73697;SDS011;62004;42.566;23.164;2023-03-21T11:23:33;96.68;;;28.90;;
73697;SDS011;62004;42.566;23.164;2023-03-21T11:25:59;95.57;;;28.63;;
73697;SDS011;62004;42.566;23.164;2023-03-21T11:28:26;94.72;;;28.05;;
73697;SDS011;62004;42.566;23.164;2023-03-21T11:30:58;95.32;;;29.13;;
73697;SDS011;62004;42.566;23.164;2023-03-21T11:33:57;95.25;;;28.95;;
73697;SDS011;62004;42.566;23.164;2023-03-21T11:38:40;95.60;;;29.17;;
73697;SDS011;62004;42.566;23.164;2023-03-21T11:41:06;95.90;;;28.93;;
73697;SDS011;62004;42.566;23.164;2023-03-21T11:43:35;95.40;;;28.80;;
73697;SDS011;62004;42.566;23.164;2023-03-21T11:46:08;95.93;;;28.80;;
73697;SDS011;62004;42.566;23.164;2023-03-21T11:48:43;95.28;;;28.73;;
73697;SDS011;62004;42.566;23.164;2023-03-21T12:06:55;95.18;;;28.63;;
73697;SDS011;62004;42.566;23.164;2023-03-21T12:11:28;95.00;;;28.43;;
73697;SDS011;62004;42.566;23.164;2023-03-21T12:14:14;95.25;;;28.67;;
73697;SDS011;62004;42.566;23.164;2023-03-21T12:16:46;95.65;;;29.55;;
73697;SDS011;62004;42.566;23.164;2023-03-21T12:24:26;96.20;;;28.83;;
73697;SDS011;62004;42.566;23.164;2023-03-21T12:34:44;95.78;;;29.27;;
73697;SDS011;62004;42.566;23.164;2023-03-21T12:39:42;94.95;;;28.40;;
73697;SDS011;62004;42.566;23.164;2023-03-21T12:44:38;95.70;;;28.95;;
73697;SDS011;62004;42.566;23.164;2023-03-21T12:52:41;95.47;;;28.80;;
73697;SDS011;62004;42.566;23.164;2023-03-21T12:55:15;95.32;;;28.75;;
73697;SDS011;62004;42.566;23.164;2023-03-21T12:57:46;95.60;;;28.88;;
73697;SDS011;62004;42.566;23.164;2023-03-21T13:00:20;95.07;;;28.58;;
73697;SDS011;62004;42.566;23.164;2023-03-21T13:02:55;95.22;;;28.88;;
73697;SDS011;62004;42.566;23.164;2023-03-21T13:08:15;95.25;;;28.85;;
73697;SDS011;62004;42.566;23.164;2023-03-21T13:10:42;95.35;;;29.17;;
73697;SDS011;62004;42.566;23.164;2023-03-21T13:13:17;94.25;;;27.85;;
73697;SDS011;62004;42.566;23.164;2023-03-21T13:15:52;95.57;;;29.85;;
73697;SDS011;62004;42.566;23.164;2023-03-21T13:20:52;95.10;;;29.17;;
73697;SDS011;62004;42.566;23.164;2023-03-21T13:23:20;94.95;;;28.73;;
73697;SDS011;62004;42.566;23.164;2023-03-21T13:25:47;95.03;;;29.00;;
73697;SDS011;62004;42.566;23.164;2023-03-21T13:28:17;94.70;;;28.40;;
73697;SDS011;62004;42.566;23.164;2023-03-21T13:30:43;94.78;;;28.52;;
73697;SDS011;62004;42.566;23.164;2023-03-21T13:36:12;94.50;;;28.27;;
73697;SDS011;62004;42.566;23.164;2023-03-21T13:38:38;94.65;;;28.58;;
73697;SDS011;62004;42.566;23.164;2023-03-21T13:41:14;95.07;;;29.67;;
73697;SDS011;62004;42.566;23.164;2023-03-21T13:59:09;94.18;;;29.00;;
73697;SDS011;62004;42.566;23.164;2023-03-21T14:01:37;93.60;;;28.67;;
73697;SDS011;62004;42.566;23.164;2023-03-21T14:04:14;93.30;;;28.45;;
73697;SDS011;62004;42.566;23.164;2023-03-21T14:09:05;93.68;;;28.20;;
73697;SDS011;62004;42.566;23.164;2023-03-21T14:11:31;93.38;;;28.40;;
73697;SDS011;62004;42.566;23.164;2023-03-21T14:13:57;94.22;;;29.17;;
73697;SDS011;62004;42.566;23.164;2023-03-21T14:16:24;93.85;;;28.77;;
73697;SDS011;62004;42.566;23.164;2023-03-21T14:18:57;93.57;;;28.67;;
73697;SDS011;62004;42.566;23.164;2023-03-21T14:21:33;93.40;;;28.35;;
73697;SDS011;62004;42.566;23.164;2023-03-21T14:24:05;93.28;;;28.35;;
73697;SDS011;62004;42.566;23.164;2023-03-21T14:26:35;93.22;;;28.30;;
73697;SDS011;62004;42.566;23.164;2023-03-21T14:29:01;93.20;;;28.35;;
73697;SDS011;62004;42.566;23.164;2023-03-21T14:31:27;93.70;;;29.30;;
73697;SDS011;62004;42.566;23.164;2023-03-21T14:33:55;93.32;;;28.50;;
73697;SDS011;62004;42.566;23.164;2023-03-21T14:36:29;93.03;;;28.30;;
73697;SDS011;62004;42.566;23.164;2023-03-21T14:41:26;92.13;;;27.93;;
73697;SDS011;62004;42.566;23.164;2023-03-21T14:46:27;92.28;;;29.15;;
73697;SDS011;62004;42.566;23.164;2023-03-21T14:48:52;91.43;;;28.40;;
73697;SDS011;62004;42.566;23.164;2023-03-21T14:51:17;90.37;;;28.60;;
73697;SDS011;62004;42.566;23.164;2023-03-21T14:53:43;89.47;;;29.25;;
73697;SDS011;62004;42.566;23.164;2023-03-21T14:56:19;89.25;;;28.60;;
73697;SDS011;62004;42.566;23.164;2023-03-21T14:58:45;87.75;;;29.23;;
73697;SDS011;62004;42.566;23.164;2023-03-21T15:01:12;86.50;;;28.98;;
73697;SDS011;62004;42.566;23.164;2023-03-21T15:03:38;85.93;;;28.67;;
73697;SDS011;62004;42.566;23.164;2023-03-21T15:06:03;85.65;;;29.23;;
73697;SDS011;62004;42.566;23.164;2023-03-21T15:08:29;85.65;;;29.45;;
73697;SDS011;62004;42.566;23.164;2023-03-21T15:10:56;85.28;;;29.05;;
73697;SDS011;62004;42.566;23.164;2023-03-21T15:13:22;85.07;;;28.38;;
73697;SDS011;62004;42.566;23.164;2023-03-21T15:15:49;84.60;;;28.50;;
73697;SDS011;62004;42.566;23.164;2023-03-21T15:18:16;84.15;;;27.60;;
73697;SDS011;62004;42.566;23.164;2023-03-21T15:20:43;84.72;;;29.17;;
73697;SDS011;62004;42.566;23.164;2023-03-21T15:23:21;84.43;;;28.65;;
73697;SDS011;62004;42.566;23.164;2023-03-21T15:25:49;84.22;;;28.63;;
73697;SDS011;62004;42.566;23.164;2023-03-21T15:28:15;84.43;;;29.03;;
73697;SDS011;62004;42.566;23.164;2023-03-21T15:30:46;84.22;;;28.50;;
73697;SDS011;62004;42.566;23.164;2023-03-21T15:33:11;84.65;;;29.35;;
73697;SDS011;62004;42.566;23.164;2023-03-21T15:35:38;84.22;;;28.83;;
73697;SDS011;62004;42.566;23.164;2023-03-21T15:38:04;84.20;;;28.30;;
73697;SDS011;62004;42.566;23.164;2023-03-21T15:40:30;84.37;;;28.60;;
73697;SDS011;62004;42.566;23.164;2023-03-21T15:45:31;83.97;;;28.17;;
73697;SDS011;62004;42.566;23.164;2023-03-21T15:48:00;84.63;;;29.30;;
73697;SDS011;62004;42.566;23.164;2023-03-21T15:50:33;84.45;;;28.83;;
73697;SDS011;62004;42.566;23.164;2023-03-21T15:53:00;84.47;;;28.67;;
73697;SDS011;62004;42.566;23.164;2023-03-21T15:55:30;84.20;;;28.30;;
73697;SDS011;62004;42.566;23.164;2023-03-21T15:58:02;84.97;;;29.90;;
73697;SDS011;62004;42.566;23.164;2023-03-21T16:00:41;84.53;;;29.02;;
73697;SDS011;62004;42.566;23.164;2023-03-21T16:03:15;84.82;;;29.27;;
73697;SDS011;62004;42.566;23.164;2023-03-21T16:05:42;84.30;;;28.40;;
73697;SDS011;62004;42.566;23.164;2023-03-21T16:10:36;84.70;;;28.63;;
73697;SDS011;62004;42.566;23.164;2023-03-21T16:13:02;84.18;;;28.13;;
73697;SDS011;62004;42.566;23.164;2023-03-21T16:15:27;83.70;;;27.88;;